Time;durP1;ratioP1;P1;durP2;ratioP2;P2;SDS_P1;SDS_P2;PMS_P1;PMS_P2;Temp;Humidity;BMP_temperature;BMP_pressure;BME280_temperature;BME280_humidity;BME280_pressure;Samples;Min_cycle;Max_cycle;Signal;HPM_P1;HPM_P2
2023/06/06 00:00:09;;;;;;;4.45;4.10;;;;;;;;;;5099546;28;20203;-60
2023/06/06 00:02:37;;;;;;;4.43;4.13;;;;;;;;;;5099225;28;20607;-60
2023/06/06 00:05:07;;;;;;;4.07;3.78;;;;;;;;;;5099663;28;20215;-60
2023/06/06 00:07:35;;;;;;;4.47;4.07;;;;;;;;;;5099037;28;20247;-60
2023/06/06 00:10:03;;;;;;;4.15;3.85;;;;;;;;;;5099471;28;20210;-60
2023/06/06 00:12:32;;;;;;;4.32;3.83;;;;;;;;;;5098869;28;20372;-60
2023/06/06 00:14:59;;;;;;;4.45;4.07;;;;;;;;;;5099253;28;20246;-60
2023/06/06 00:17:27;;;;;;;4.03;3.72;;;;;;;;;;5099360;28;20214;-60
2023/06/06 00:19:54;;;;;;;4.28;3.97;;;;;;;;;;5098948;28;20269;-60
2023/06/06 00:22:24;;;;;;;4.82;4.32;;;;;;;;;;5098957;28;20207;-60
2023/06/06 00:24:52;;;;;;;4.65;4.25;;;;;;;;;;5098773;28;20257;-60
2023/06/06 00:27:20;;;;;;;4.47;4.18;;;;;;;;;;5098451;28;20214;-60
2023/06/06 00:29:48;;;;;;;4.45;4.15;;;;;;;;;;5098977;28;20265;-60
2023/06/06 00:32:15;;;;;;;4.88;4.47;;;;;;;;;;5098593;28;20243;-60
2023/06/06 00:34:43;;;;;;;4.40;4.00;;;;;;;;;;5098898;28;20204;-60
2023/06/06 00:37:11;;;;;;;4.72;4.32;;;;;;;;;;5098969;28;20546;-60
2023/06/06 00:39:40;;;;;;;5.20;4.80;;;;;;;;;;5099001;28;20533;-60
2023/06/06 00:42:07;;;;;;;4.22;3.92;;;;;;;;;;5098653;28;20200;-60
2023/06/06 00:44:35;;;;;;;4.32;4.03;;;;;;;;;;5097449;28;20219;-60
2023/06/06 00:47:03;;;;;;;4.63;4.22;;;;;;;;;;5098720;28;20256;-60
2023/06/06 00:49:31;;;;;;;4.82;4.30;;;;;;;;;;5098173;28;20290;-60
2023/06/06 00:51:58;;;;;;;5.22;4.82;;;;;;;;;;5098266;28;20223;-60
2023/06/06 00:54:26;;;;;;;7.82;4.15;;;;;;;;;;5098499;28;20211;-60
2023/06/06 00:56:56;;;;;;;4.57;4.18;;;;;;;;;;5098249;28;20214;-60
2023/06/06 00:59:25;;;;;;;4.55;4.20;;;;;;;;;;5098526;28;20204;-60
2023/06/06 01:01:53;;;;;;;4.70;4.30;;;;;;;;;;5097859;28;20322;-60
2023/06/06 01:04:20;;;;;;;4.82;4.43;;;;;;;;;;5098264;28;20227;-60
2023/06/06 01:06:49;;;;;;;4.35;4.05;;;;;;;;;;5098208;28;20298;-60
2023/06/06 01:09:17;;;;;;;4.82;4.43;;;;;;;;;;5098008;28;20306;-60
2023/06/06 01:11:48;;;;;;;4.80;4.40;;;;;;;;;;5097852;28;20203;-60
2023/06/06 01:14:22;;;;;;;4.53;4.13;;;;;;;;;;5098035;28;20204;-60
2023/06/06 01:16:52;;;;;;;4.50;4.15;;;;;;;;;;5098123;28;20214;-60
2023/06/06 01:19:21;;;;;;;5.10;4.70;;;;;;;;;;5098304;28;20211;-60
2023/06/06 01:21:52;;;;;;;4.68;4.28;;;;;;;;;;5097933;28;20207;-60
2023/06/06 01:24:21;;;;;;;4.68;4.28;;;;;;;;;;5098066;28;20207;-60
2023/06/06 01:26:49;;;;;;;4.60;4.30;;;;;;;;;;5097542;28;20667;-60
2023/06/06 01:29:17;;;;;;;4.47;4.18;;;;;;;;;;5097744;28;20580;-60
2023/06/06 01:31:45;;;;;;;4.65;4.25;;;;;;;;;;5097385;28;20203;-60
2023/06/06 01:34:15;;;;;;;4.75;4.35;;;;;;;;;;5097805;28;20214;-60
2023/06/06 01:36:46;;;;;;;4.85;4.32;;;;;;;;;;5097754;28;20285;-60
2023/06/06 01:39:16;;;;;;;4.20;3.90;;;;;;;;;;5098227;28;20538;-60
2023/06/06 01:41:46;;;;;;;4.63;4.30;;;;;;;;;;5097836;28;20210;-60
2023/06/06 01:44:14;;;;;;;4.70;4.30;;;;;;;;;;5097843;28;20207;-60
2023/06/06 01:46:42;;;;;;;4.40;4.10;;;;;;;;;;5097528;28;20204;-60
2023/06/06 01:49:10;;;;;;;4.60;4.30;;;;;;;;;;5097743;28;20204;-60
2023/06/06 01:51:38;;;;;;;4.93;4.53;;;;;;;;;;5097418;28;20211;-60
2023/06/06 01:54:05;;;;;;;4.70;4.30;;;;;;;;;;5097726;28;20207;-60
2023/06/06 01:56:35;;;;;;;4.80;4.40;;;;;;;;;;5096962;28;20265;-60
2023/06/06 01:59:02;;;;;;;4.80;4.40;;;;;;;;;;5097774;28;20213;-60
2023/06/06 02:01:30;;;;;;;4.82;4.35;;;;;;;;;;5097379;28;20239;-61
2023/06/06 02:03:57;;;;;;;5.40;5.00;;;;;;;;;;5097695;28;20592;-61
2023/06/06 02:06:25;;;;;;;5.05;4.65;;;;;;;;;;5097321;28;20214;-61
2023/06/06 02:08:52;;;;;;;4.60;4.20;;;;;;;;;;5097178;28;20233;-62
2023/06/06 02:11:23;;;;;;;4.68;4.38;;;;;;;;;;5097140;28;20656;-62
2023/06/06 02:13:52;;;;;;;4.65;4.28;;;;;;;;;;5097394;28;20250;-62
2023/06/06 02:16:21;;;;;;;4.72;4.32;;;;;;;;;;5097579;28;20200;-62
2023/06/06 02:18:48;;;;;;;4.50;4.20;;;;;;;;;;5097145;28;20286;-62
2023/06/06 02:21:16;;;;;;;5.30;4.85;;;;;;;;;;5096760;28;20203;-62
2023/06/06 02:23:44;;;;;;;4.75;4.40;;;;;;;;;;5097008;28;20297;-62
2023/06/06 02:26:12;;;;;;;4.80;4.40;;;;;;;;;;5097041;28;20649;-62
2023/06/06 02:28:39;;;;;;;4.75;4.43;;;;;;;;;;5097045;28;20219;-62
2023/06/06 02:31:09;;;;;;;4.75;4.35;;;;;;;;;;5096929;28;20231;-62
2023/06/06 02:33:36;;;;;;;5.15;4.75;;;;;;;;;;5097136;28;20258;-62
2023/06/06 02:36:04;;;;;;;4.65;4.35;;;;;;;;;;5096903;28;20268;-62
2023/06/06 02:38:32;;;;;;;5.15;4.65;;;;;;;;;;5097129;28;20204;-62
2023/06/06 02:40:59;;;;;;;4.88;4.57;;;;;;;;;;5097113;28;20254;-62
2023/06/06 02:43:27;;;;;;;4.80;4.40;;;;;;;;;;5097132;28;20254;-62
2023/06/06 02:45:55;;;;;;;4.78;4.38;;;;;;;;;;5096730;28;20587;-62
2023/06/06 02:48:24;;;;;;;4.90;4.50;;;;;;;;;;5096915;28;20204;-62
2023/06/06 02:50:52;;;;;;;4.80;4.40;;;;;;;;;;5096830;28;20207;-62
2023/06/06 02:53:21;;;;;;;4.88;4.57;;;;;;;;;;5096465;28;20281;-62
2023/06/06 02:55:48;;;;;;;4.63;4.22;;;;;;;;;;5096472;28;20207;-62
2023/06/06 02:58:29;;;;;;;4.82;4.50;;;;;;;;;;5096609;28;20246;-62
2023/06/06 03:00:56;;;;;;;5.22;4.72;;;;;;;;;;5096674;28;20241;-62
2023/06/06 03:03:26;;;;;;;4.60;4.30;;;;;;;;;;5096643;28;20270;-62
2023/06/06 03:05:54;;;;;;;4.70;4.30;;;;;;;;;;5096562;28;20235;-62
2023/06/06 03:08:21;;;;;;;4.63;4.18;;;;;;;;;;5099131;28;20547;-62
2023/06/06 03:10:50;;;;;;;4.70;4.30;;;;;;;;;;5100342;28;20211;-62
2023/06/06 03:13:17;;;;;;;4.15;3.83;;;;;;;;;;5100111;28;20288;-62
2023/06/06 03:15:45;;;;;;;4.38;3.97;;;;;;;;;;5100259;28;20203;-62
2023/06/06 03:18:17;;;;;;;4.60;4.20;;;;;;;;;;5100120;28;20587;-62
2023/06/06 03:20:48;;;;;;;4.03;3.63;;;;;;;;;;5100007;28;20208;-62
2023/06/06 03:23:15;;;;;;;4.03;3.72;;;;;;;;;;5099570;28;20199;-62
2023/06/06 03:25:44;;;;;;;3.85;3.55;;;;;;;;;;5099816;28;20204;-62
2023/06/06 03:28:11;;;;;;;4.07;3.78;;;;;;;;;;5099608;28;20246;-62
2023/06/06 03:30:39;;;;;;;4.25;3.83;;;;;;;;;;5099699;28;20242;-62
2023/06/06 03:33:07;;;;;;;4.22;3.92;;;;;;;;;;5099486;28;20223;-62
2023/06/06 03:35:35;;;;;;;4.03;3.72;;;;;;;;;;5099821;28;20210;-62
2023/06/06 03:38:04;;;;;;;3.72;3.42;;;;;;;;;;5099995;28;20203;-62
2023/06/06 03:40:32;;;;;;;4.10;3.80;;;;;;;;;;5099515;28;20546;-62
2023/06/06 03:42:59;;;;;;;3.78;3.47;;;;;;;;;;5099787;28;20294;-62
2023/06/06 03:45:27;;;;;;;3.75;3.45;;;;;;;;;;5099510;28;20230;-62
2023/06/06 03:47:55;;;;;;;4.00;3.70;;;;;;;;;;5099296;28;20211;-62
2023/06/06 03:50:22;;;;;;;3.38;3.08;;;;;;;;;;5099453;28;20617;-62
2023/06/06 03:52:50;;;;;;;3.97;3.67;;;;;;;;;;5098599;28;20230;-62
2023/06/06 03:55:19;;;;;;;3.75;3.45;;;;;;;;;;5098761;28;20214;-62
2023/06/06 03:57:46;;;;;;;3.97;3.67;;;;;;;;;;5098883;28;20265;-62
2023/06/06 04:00:15;;;;;;;3.58;3.28;;;;;;;;;;5099120;28;20215;-62
2023/06/06 04:02:42;;;;;;;4.00;3.60;;;;;;;;;;5098730;28;20288;-62
2023/06/06 04:05:10;;;;;;;3.67;3.38;;;;;;;;;;5098692;28;20244;-62
2023/06/06 04:07:37;;;;;;;3.97;3.63;;;;;;;;;;5099042;28;20247;-62
2023/06/06 04:10:05;;;;;;;4.00;3.60;;;;;;;;;;5098585;28;20527;-62
2023/06/06 04:12:34;;;;;;;4.00;3.70;;;;;;;;;;5098483;28;20202;-62
2023/06/06 04:15:01;;;;;;;4.22;3.60;;;;;;;;;;5098908;28;20207;-62
2023/06/06 04:17:29;;;;;;;4.50;3.88;;;;;;;;;;5098102;28;20579;-62
2023/06/06 04:19:57;;;;;;;4.00;3.70;;;;;;;;;;5098613;28;20302;-62
2023/06/06 04:22:24;;;;;;;4.20;3.90;;;;;;;;;;5098215;28;20286;-62
2023/06/06 04:24:52;;;;;;;3.80;3.50;;;;;;;;;;5098642;28;20207;-62
2023/06/06 04:27:23;;;;;;;4.30;3.92;;;;;;;;;;5098510;28;20196;-62
2023/06/06 04:29:52;;;;;;;4.25;3.90;;;;;;;;;;5098112;28;20579;-62
2023/06/06 04:32:19;;;;;;;3.70;3.40;;;;;;;;;;5098509;28;20769;-62
2023/06/06 04:34:51;;;;;;;4.40;3.97;;;;;;;;;;5097746;28;20227;-62
2023/06/06 04:37:19;;;;;;;3.88;3.58;;;;;;;;;;5097689;28;20208;-62
2023/06/06 04:39:52;;;;;;;4.50;3.75;;;;;;;;;;5097668;28;20472;-62
2023/06/06 04:42:20;;;;;;;5.75;3.70;;;;;;;;;;5097706;28;20215;-62
2023/06/06 04:44:49;;;;;;;4.68;3.60;;;;;;;;;;5097149;28;20200;-62
2023/06/06 04:47:20;;;;;;;3.95;3.65;;;;;;;;;;5096923;28;20228;-62
2023/06/06 04:49:48;;;;;;;4.45;3.63;;;;;;;;;;5097089;28;20207;-62
2023/06/06 04:52:16;;;;;;;3.80;3.50;;;;;;;;;;5097244;28;20200;-62
2023/06/06 04:54:45;;;;;;;3.95;3.58;;;;;;;;;;5095756;28;20675;-63
2023/06/06 04:57:15;;;;;;;4.05;3.63;;;;;;;;;;5096270;28;20204;-62
2023/06/06 04:59:44;;;;;;;4.00;3.70;;;;;;;;;;5096821;28;20207;-62
2023/06/06 05:02:12;;;;;;;3.78;3.47;;;;;;;;;;5095805;28;20822;-62
2023/06/06 05:04:40;;;;;;;4.28;3.88;;;;;;;;;;5095200;28;20200;-62
2023/06/06 05:07:09;;;;;;;4.60;4.20;;;;;;;;;;5095534;28;20204;-62
2023/06/06 05:09:37;;;;;;;4.38;3.90;;;;;;;;;;5096248;28;20233;-62
2023/06/06 05:12:05;;;;;;;4.53;4.10;;;;;;;;;;5093992;28;20203;-62
2023/06/06 05:14:32;;;;;;;4.13;3.78;;;;;;;;;;5094933;28;20219;-62
2023/06/06 05:16:59;;;;;;;3.95;3.45;;;;;;;;;;5095612;28;20516;-62
2023/06/06 05:19:27;;;;;;;4.55;3.78;;;;;;;;;;5095069;28;20210;-62
2023/06/06 05:21:56;;;;;;;3.97;3.67;;;;;;;;;;5094605;28;20204;-62
2023/06/06 05:24:23;;;;;;;4.63;4.07;;;;;;;;;;5094917;28;20217;-62
2023/06/06 05:26:50;;;;;;;3.95;3.65;;;;;;;;;;5095174;28;20724;-63
2023/06/06 05:29:18;;;;;;;4.47;4.07;;;;;;;;;;5095683;28;20204;-62
2023/06/06 05:31:45;;;;;;;4.22;3.88;;;;;;;;;;5094072;28;20203;-62
2023/06/06 05:34:12;;;;;;;4.15;3.85;;;;;;;;;;5095210;28;20641;-62
2023/06/06 05:36:42;;;;;;;4.03;3.63;;;;;;;;;;5095202;28;20196;-62
2023/06/06 05:39:11;;;;;;;4.45;4.05;;;;;;;;;;5095143;28;20568;-62
2023/06/06 05:41:38;;;;;;;4.20;3.88;;;;;;;;;;5094771;28;20238;-62
2023/06/06 05:44:06;;;;;;;3.90;3.60;;;;;;;;;;5095441;28;20207;-62
2023/06/06 05:46:33;;;;;;;4.53;4.13;;;;;;;;;;5095593;28;20204;-62
2023/06/06 05:49:00;;;;;;;3.95;3.65;;;;;;;;;;5095272;28;20214;-62
2023/06/06 05:51:28;;;;;;;4.40;4.00;;;;;;;;;;5094878;28;20598;-62
2023/06/06 05:53:55;;;;;;;3.97;3.67;;;;;;;;;;5095521;28;20281;-62
2023/06/06 05:56:24;;;;;;;4.30;4.00;;;;;;;;;;5094647;28;20230;-62
2023/06/06 05:58:52;;;;;;;4.43;4.03;;;;;;;;;;5095469;28;20203;-62
2023/06/06 06:01:24;;;;;;;4.28;3.88;;;;;;;;;;5094898;28;20290;-62
2023/06/06 06:03:52;;;;;;;3.92;3.63;;;;;;;;;;5094919;28;20247;-62
2023/06/06 06:06:20;;;;;;;5.15;3.67;;;;;;;;;;5095088;28;20588;-62
2023/06/06 06:08:49;;;;;;;5.60;4.47;;;;;;;;;;5095047;28;20203;-62
2023/06/06 06:11:17;;;;;;;4.80;4.28;;;;;;;;;;5095321;28;20211;-62
2023/06/06 06:13:45;;;;;;;4.00;3.70;;;;;;;;;;5095180;28;20259;-62
2023/06/06 06:16:13;;;;;;;4.00;3.70;;;;;;;;;;5095011;28;20204;-62
2023/06/06 06:18:40;;;;;;;4.60;3.63;;;;;;;;;;5095552;28;20487;-62
2023/06/06 06:21:08;;;;;;;4.18;3.80;;;;;;;;;;5094999;28;20606;-62
2023/06/06 06:23:35;;;;;;;3.90;3.60;;;;;;;;;;5095113;28;20218;-62
2023/06/06 06:26:02;;;;;;;4.60;4.20;;;;;;;;;;5095227;28;20203;-62
2023/06/06 06:28:31;;;;;;;4.10;3.70;;;;;;;;;;5094601;28;20621;-62
2023/06/06 06:31:00;;;;;;;4.20;3.70;;;;;;;;;;5094969;28;20200;-62
2023/06/06 06:33:29;;;;;;;4.97;4.20;;;;;;;;;;5094677;28;20215;-62
2023/06/06 06:35:56;;;;;;;4.35;3.95;;;;;;;;;;5094826;28;20215;-62
2023/06/06 06:38:25;;;;;;;4.32;3.85;;;;;;;;;;5095693;28;20469;-62
2023/06/06 06:40:52;;;;;;;4.30;4.00;;;;;;;;;;5094763;28;20287;-62
2023/06/06 06:43:19;;;;;;;4.60;4.10;;;;;;;;;;5099281;28;20204;-62
2023/06/06 06:45:47;;;;;;;5.10;4.47;;;;;;;;;;5097847;28;20204;-62
2023/06/06 06:48:16;;;;;;;4.60;4.20;;;;;;;;;;5098380;28;20626;-62
2023/06/06 06:50:44;;;;;;;4.97;4.47;;;;;;;;;;5099390;28;20214;-62
2023/06/06 06:53:13;;;;;;;4.43;4.10;;;;;;;;;;5098758;28;20257;-62
2023/06/06 06:55:41;;;;;;;4.78;4.38;;;;;;;;;;5098312;28;20226;-62
2023/06/06 06:58:08;;;;;;;4.40;4.10;;;;;;;;;;5098502;28;20508;-62
2023/06/06 07:00:36;;;;;;;5.00;4.60;;;;;;;;;;5098404;28;20203;-62
2023/06/06 07:03:04;;;;;;;4.68;4.28;;;;;;;;;;5097494;28;20239;-62
2023/06/06 07:05:32;;;;;;;4.10;3.80;;;;;;;;;;5098557;28;20669;-62
2023/06/06 07:08:00;;;;;;;4.60;4.20;;;;;;;;;;5098282;28;20214;-62
2023/06/06 07:10:31;;;;;;;4.50;4.10;;;;;;;;;;5097702;28;20211;-62
2023/06/06 07:12:59;;;;;;;4.65;4.35;;;;;;;;;;5096594;28;20205;-62
2023/06/06 07:15:26;;;;;;;3.90;3.60;;;;;;;;;;5097543;28;20239;-62
2023/06/06 07:17:54;;;;;;;4.38;3.97;;;;;;;;;;5098165;28;20750;-62
2023/06/06 07:20:23;;;;;;;4.10;3.80;;;;;;;;;;5097742;28;20669;-62
2023/06/06 07:22:53;;;;;;;4.07;3.65;;;;;;;;;;5098238;28;20309;-62
2023/06/06 07:25:21;;;;;;;4.10;3.70;;;;;;;;;;5098362;28;20211;-62
2023/06/06 07:27:48;;;;;;;3.65;3.42;;;;;;;;;;5097587;28;20207;-62
2023/06/06 07:30:16;;;;;;;3.38;3.10;;;;;;;;;;5097648;28;20203;-62
2023/06/06 07:32:44;;;;;;;3.60;3.30;;;;;;;;;;5098024;28;20214;-62
2023/06/06 07:35:12;;;;;;;3.70;3.40;;;;;;;;;;5097969;28;20227;-62
2023/06/06 07:37:39;;;;;;;3.40;3.20;;;;;;;;;;5097304;28;20214;-62
2023/06/06 07:40:09;;;;;;;3.45;3.17;;;;;;;;;;5097606;28;20215;-62
2023/06/06 07:42:37;;;;;;;2.97;2.78;;;;;;;;;;5097389;28;20204;-62
2023/06/06 07:45:04;;;;;;;3.40;3.20;;;;;;;;;;5097560;28;20196;-62
2023/06/06 07:47:32;;;;;;;4.53;2.85;;;;;;;;;;5097890;28;20290;-62
2023/06/06 07:49:59;;;;;;;3.22;3.00;;;;;;;;;;5097669;28;20207;-62
2023/06/06 07:52:27;;;;;;;2.95;2.75;;;;;;;;;;5097760;28;20306;-62
2023/06/06 07:54:55;;;;;;;3.38;3.17;;;;;;;;;;5096494;28;20245;-62
2023/06/06 07:57:25;;;;;;;3.17;2.88;;;;;;;;;;5097675;28;20648;-62
2023/06/06 07:59:54;;;;;;;2.83;2.63;;;;;;;;;;5098013;28;20219;-62
2023/06/06 08:02:22;;;;;;;2.85;2.65;;;;;;;;;;5096923;28;20232;-62
2023/06/06 08:04:49;;;;;;;2.83;2.63;;;;;;;;;;5097687;28;20211;-62
2023/06/06 08:07:18;;;;;;;3.30;3.00;;;;;;;;;;5097073;28;20204;-62
2023/06/06 08:09:46;;;;;;;2.83;2.63;;;;;;;;;;5096738;28;20204;-62
2023/06/06 08:12:13;;;;;;;2.83;2.60;;;;;;;;;;5096598;28;20269;-62
2023/06/06 08:14:42;;;;;;;3.00;2.80;;;;;;;;;;5096549;28;20223;-62
2023/06/06 08:17:10;;;;;;;2.95;2.75;;;;;;;;;;5096588;28;20294;-62
2023/06/06 08:19:37;;;;;;;2.75;2.55;;;;;;;;;;5096576;28;20207;-62
2023/06/06 08:22:06;;;;;;;3.05;2.85;;;;;;;;;;5096914;28;20204;-62
2023/06/06 08:24:33;;;;;;;3.03;2.70;;;;;;;;;;5096510;28;20213;-62
2023/06/06 08:27:01;;;;;;;3.05;2.85;;;;;;;;;;5096631;28;20652;-62
2023/06/06 08:29:28;;;;;;;3.65;2.90;;;;;;;;;;5096865;28;20268;-62
2023/06/06 08:31:57;;;;;;;3.05;2.72;;;;;;;;;;5096558;28;20621;-62
2023/06/06 08:34:24;;;;;;;2.90;2.70;;;;;;;;;;5096898;28;20510;-62
2023/06/06 08:36:52;;;;;;;3.00;2.80;;;;;;;;;;5096449;28;20234;-62
2023/06/06 08:39:20;;;;;;;2.65;2.45;;;;;;;;;;5096732;28;20214;-62
2023/06/06 08:41:51;;;;;;;2.83;2.63;;;;;;;;;;5096219;28;20212;-62
2023/06/06 08:44:19;;;;;;;3.13;2.92;;;;;;;;;;5095963;28;20258;-62
2023/06/06 08:46:48;;;;;;;3.28;2.97;;;;;;;;;;5096298;28;20308;-62
2023/06/06 08:49:18;;;;;;;2.90;2.70;;;;;;;;;;5096485;28;20204;-62
2023/06/06 08:51:46;;;;;;;2.90;2.70;;;;;;;;;;5096098;28;20569;-62
2023/06/06 08:54:13;;;;;;;2.78;2.58;;;;;;;;;;5095310;28;20658;-62
2023/06/06 08:56:43;;;;;;;2.90;2.70;;;;;;;;;;5095493;28;20204;-62
2023/06/06 08:59:11;;;;;;;2.83;2.63;;;;;;;;;;5095632;28;20710;-62
2023/06/06 09:01:39;;;;;;;2.80;2.60;;;;;;;;;;5095476;28;20271;-62
2023/06/06 09:04:07;;;;;;;2.78;2.50;;;;;;;;;;5094858;28;20211;-62
2023/06/06 09:06:38;;;;;;;2.60;2.50;;;;;;;;;;5095022;28;20211;-62
2023/06/06 09:09:07;;;;;;;2.97;2.78;;;;;;;;;;5096182;28;20215;-62
2023/06/06 09:11:35;;;;;;;2.70;2.50;;;;;;;;;;5095563;28;20204;-62
2023/06/06 09:14:02;;;;;;;2.80;2.60;;;;;;;;;;5096055;28;20231;-62
2023/06/06 09:16:30;;;;;;;2.97;2.67;;;;;;;;;;5095910;28;20207;-62
2023/06/06 09:18:58;;;;;;;2.30;2.20;;;;;;;;;;5095928;28;20302;-62
2023/06/06 09:21:29;;;;;;;3.13;2.92;;;;;;;;;;5095790;28;20204;-62
2023/06/06 09:23:57;;;;;;;3.42;3.13;;;;;;;;;;5096413;28;20515;-62
2023/06/06 09:26:25;;;;;;;3.28;3.03;;;;;;;;;;5096271;28;20575;-62
2023/06/06 09:28:53;;;;;;;3.50;3.30;;;;;;;;;;5095987;28;20328;-62
2023/06/06 09:31:25;;;;;;;3.25;3.05;;;;;;;;;;5095399;28;20203;-62
2023/06/06 09:33:53;;;;;;;3.65;3.35;;;;;;;;;;5095206;28;20282;-62
2023/06/06 09:36:22;;;;;;;3.63;3.33;;;;;;;;;;5095132;28;20231;-62
2023/06/06 09:38:49;;;;;;;3.90;3.60;;;;;;;;;;5095848;28;20203;-62
2023/06/06 09:41:18;;;;;;;3.28;3.08;;;;;;;;;;5094890;28;20583;-62
2023/06/06 09:43:46;;;;;;;3.22;3.03;;;;;;;;;;5094265;28;20590;-62
2023/06/06 09:46:17;;;;;;;3.80;3.50;;;;;;;;;;5095362;28;20200;-62
2023/06/06 09:48:44;;;;;;;3.38;3.17;;;;;;;;;;5094580;28;20204;-62
2023/06/06 09:51:12;;;;;;;3.83;3.53;;;;;;;;;;5094705;28;20560;-62
2023/06/06 09:53:40;;;;;;;3.28;3.08;;;;;;;;;;5094506;28;20267;-62
2023/06/06 09:56:08;;;;;;;3.90;3.60;;;;;;;;;;5094669;28;20680;-62
2023/06/06 09:58:38;;;;;;;3.40;3.20;;;;;;;;;;5094689;28;20207;-62
2023/06/06 10:01:06;;;;;;;3.47;3.22;;;;;;;;;;5094817;28;20281;-62
2023/06/06 10:03:37;;;;;;;3.55;3.28;;;;;;;;;;5094124;28;20239;-62
2023/06/06 10:06:06;;;;;;;3.25;2.95;;;;;;;;;;5093713;28;20195;-62
2023/06/06 10:08:33;;;;;;;2.88;2.67;;;;;;;;;;5094520;28;20208;-62
2023/06/06 10:11:02;;;;;;;3.40;3.20;;;;;;;;;;5093200;28;20204;-62
2023/06/06 10:13:30;;;;;;;3.08;2.88;;;;;;;;;;5094238;28;20196;-62
2023/06/06 10:15:59;;;;;;;3.45;3.15;;;;;;;;;;5093995;28;20223;-62
2023/06/06 10:18:27;;;;;;;3.30;3.10;;;;;;;;;;5097738;28;20214;-62
2023/06/06 10:20:54;;;;;;;3.30;3.10;;;;;;;;;;5097628;28;20195;-62
2023/06/06 10:23:22;;;;;;;3.10;2.90;;;;;;;;;;5098018;28;20195;-62
2023/06/06 10:25:49;;;;;;;3.28;3.08;;;;;;;;;;5098461;28;20601;-62
2023/06/06 10:28:20;;;;;;;3.55;3.30;;;;;;;;;;5097699;28;20214;-62
2023/06/06 10:30:52;;;;;;;3.17;2.97;;;;;;;;;;5097718;28;20241;-62
2023/06/06 10:33:26;;;;;;;3.13;2.92;;;;;;;;;;5097970;28;20587;-62
2023/06/06 10:35:57;;;;;;;2.92;2.72;;;;;;;;;;5098097;28;20230;-62
2023/06/06 10:38:24;;;;;;;3.05;2.75;;;;;;;;;;5098223;28;20203;-62
2023/06/06 10:40:52;;;;;;;3.22;3.03;;;;;;;;;;5097546;28;20219;-62
2023/06/06 10:43:21;;;;;;;2.97;2.78;;;;;;;;;;5097628;28;20203;-62
2023/06/06 10:45:51;;;;;;;2.97;2.78;;;;;;;;;;5097568;28;20584;-62
2023/06/06 10:48:18;;;;;;;2.90;2.70;;;;;;;;;;5098650;28;20230;-62
2023/06/06 10:50:56;;;;;;;2.70;2.50;;;;;;;;;;5097650;28;20199;-62
2023/06/06 10:53:25;;;;;;;2.80;2.60;;;;;;;;;;5097868;28;20211;-62
2023/06/06 10:55:52;;;;;;;2.55;2.35;;;;;;;;;;5097252;28;20227;-62
2023/06/06 10:58:21;;;;;;;2.92;2.67;;;;;;;;;;5097325;28;20204;-62
2023/06/06 11:00:49;;;;;;;2.67;2.47;;;;;;;;;;5097532;28;20274;-62
2023/06/06 11:03:18;;;;;;;2.78;2.58;;;;;;;;;;5097919;28;20240;-62
2023/06/06 11:06:05;;;;;;;2.85;2.65;;;;;;;;;;5098453;28;20200;-62
2023/06/06 11:08:34;;;;;;;2.60;2.40;;;;;;;;;;5098451;28;20235;-62
2023/06/06 11:11:18;;;;;;;2.88;2.67;;;;;;;;;;5097364;28;20217;-62
2023/06/06 11:13:51;;;;;;;2.47;2.28;;;;;;;;;;5097453;28;20207;-62
2023/06/06 11:16:18;;;;;;;2.38;2.28;;;;;;;;;;5097854;28;20228;-62
2023/06/06 11:18:46;;;;;;;2.30;2.20;;;;;;;;;;5097731;28;20214;-62
2023/06/06 11:21:19;;;;;;;2.22;2.03;;;;;;;;;;5097513;28;20204;-62
2023/06/06 11:23:48;;;;;;;2.45;2.25;;;;;;;;;;5098119;28;20208;-62
2023/06/06 11:26:16;;;;;;;2.10;2.00;;;;;;;;;;5097228;28;20210;-62
2023/06/06 11:28:44;;;;;;;2.00;1.90;;;;;;;;;;5094875;28;20208;-62
2023/06/06 11:31:12;;;;;;;2.38;2.20;;;;;;;;;;5095811;28;20199;-62
2023/06/06 11:33:39;;;;;;;2.30;2.10;;;;;;;;;;5096980;28;20203;-62
2023/06/06 11:36:07;;;;;;;2.47;2.38;;;;;;;;;;5097871;28;20231;-62
2023/06/06 11:38:34;;;;;;;2.72;2.53;;;;;;;;;;5096454;28;20208;-62
2023/06/06 11:41:06;;;;;;;2.60;2.40;;;;;;;;;;5096023;28;20210;-62
2023/06/06 11:43:33;;;;;;;2.70;2.50;;;;;;;;;;5096536;28;20222;-62
2023/06/06 11:46:04;;;;;;;3.20;3.00;;;;;;;;;;5096859;28;20211;-62
2023/06/06 11:48:31;;;;;;;3.92;3.63;;;;;;;;;;5096365;28;20235;-62
2023/06/06 11:50:59;;;;;;;3.05;2.85;;;;;;;;;;5096773;28;20203;-62
2023/06/06 11:53:30;;;;;;;3.33;3.13;;;;;;;;;;5096365;28;20204;-62
2023/06/06 11:55:57;;;;;;;3.72;3.42;;;;;;;;;;5096511;28;20230;-62
2023/06/06 11:58:29;;;;;;;3.80;3.55;;;;;;;;;;5096202;28;20203;-62
2023/06/06 12:00:59;;;;;;;4.13;3.83;;;;;;;;;;5095915;28;20213;-62
2023/06/06 12:03:27;;;;;;;3.80;3.50;;;;;;;;;;5095957;28;20235;-62
2023/06/06 12:06:01;;;;;;;4.40;4.10;;;;;;;;;;5096565;28;20207;-62
2023/06/06 12:08:28;;;;;;;4.13;3.83;;;;;;;;;;5096325;28;20587;-62
2023/06/06 12:10:56;;;;;;;4.10;3.80;;;;;;;;;;5096020;28;20273;-62
2023/06/06 12:13:34;;;;;;;4.40;4.10;;;;;;;;;;5095167;28;20230;-62
2023/06/06 12:16:01;;;;;;;5.50;5.00;;;;;;;;;;5096468;28;20230;-62
2023/06/06 12:18:28;;;;;;;5.32;4.82;;;;;;;;;;5095412;28;20599;-62
2023/06/06 12:21:05;;;;;;;5.13;4.72;;;;;;;;;;5096004;28;20204;-62
2023/06/06 12:23:32;;;;;;;5.85;5.35;;;;;;;;;;5095018;28;20210;-62
2023/06/06 12:26:00;;;;;;;5.63;5.22;;;;;;;;;;5095023;28;20199;-62
2023/06/06 12:28:28;;;;;;;4.65;4.35;;;;;;;;;;5095301;28;20222;-62
2023/06/06 12:30:57;;;;;;;5.38;4.97;;;;;;;;;;5096477;28;20234;-62
2023/06/06 12:33:24;;;;;;;5.47;5.00;;;;;;;;;;5095300;28;20214;-62
2023/06/06 12:35:53;;;;;;;6.05;5.47;;;;;;;;;;5095494;28;20660;-62
2023/06/06 12:38:21;;;;;;;5.88;5.47;;;;;;;;;;5095796;28;20233;-62
2023/06/06 12:40:55;;;;;;;6.30;5.90;;;;;;;;;;5094625;28;20295;-62
2023/06/06 12:43:22;;;;;;;6.47;5.97;;;;;;;;;;5096066;28;20206;-62
2023/06/06 12:45:51;;;;;;;6.63;6.13;;;;;;;;;;5094809;28;20196;-62
2023/06/06 12:48:25;;;;;;;6.35;5.85;;;;;;;;;;5095187;28;20286;-62
2023/06/06 12:50:54;;;;;;;6.43;5.93;;;;;;;;;;5095510;28;20203;-62
2023/06/06 12:53:24;;;;;;;6.07;5.68;;;;;;;;;;5095630;28;20300;-62
2023/06/06 12:55:52;;;;;;;6.53;6.03;;;;;;;;;;5094045;28;20227;-62
2023/06/06 12:58:20;;;;;;;6.57;6.07;;;;;;;;;;5095311;28;20275;-62
2023/06/06 13:00:47;;;;;;;6.55;6.05;;;;;;;;;;5095252;28;20203;-62
2023/06/06 13:03:16;;;;;;;6.60;6.10;;;;;;;;;;5095637;28;20235;-62
2023/06/06 13:05:50;;;;;;;7.00;6.50;;;;;;;;;;5095438;28;20206;-62
2023/06/06 13:08:18;;;;;;;5.95;5.55;;;;;;;;;;5094930;28;20227;-62
2023/06/06 13:10:45;;;;;;;6.60;6.13;;;;;;;;;;5094682;28;20218;-62
2023/06/06 13:13:13;;;;;;;6.88;6.38;;;;;;;;;;5094133;28;20207;-62
2023/06/06 13:15:40;;;;;;;7.75;7.15;;;;;;;;;;5094994;28;20215;-62
2023/06/06 13:18:08;;;;;;;6.70;6.20;;;;;;;;;;5094787;28;20203;-62
2023/06/06 13:20:37;;;;;;;8.20;7.60;;;;;;;;;;5095452;28;20276;-62
2023/06/06 13:23:06;;;;;;;7.63;7.13;;;;;;;;;;5093989;28;20202;-62
2023/06/06 13:25:34;;;;;;;7.38;6.88;;;;;;;;;;5094391;28;20207;-62
2023/06/06 13:28:01;;;;;;;7.78;7.18;;;;;;;;;;5093931;28;20286;-62
2023/06/06 13:30:29;;;;;;;7.70;7.10;;;;;;;;;;5094651;28;20203;-62
2023/06/06 13:32:57;;;;;;;8.50;7.90;;;;;;;;;;5094826;28;20211;-62
2023/06/06 13:35:24;;;;;;;9.73;8.77;;;;;;;;;;5094317;28;20298;-62
2023/06/06 13:37:52;;;;;;;8.60;7.95;;;;;;;;;;5094283;28;20204;-63
2023/06/06 13:40:21;;;;;;;8.05;7.45;;;;;;;;;;5094066;28;20208;-63
2023/06/06 13:42:48;;;;;;;8.40;7.60;;;;;;;;;;5094467;28;20211;-62
2023/06/06 13:45:16;;;;;;;9.27;8.48;;;;;;;;;;5094664;28;20495;-62
2023/06/06 13:47:43;;;;;;;8.65;7.95;;;;;;;;;;5093982;28;20192;-62
2023/06/06 13:50:11;;;;;;;8.20;7.60;;;;;;;;;;5094411;28;20204;-62
2023/06/06 13:52:42;;;;;;;8.27;7.68;;;;;;;;;;5092845;28;20203;-62
2023/06/06 13:55:09;;;;;;;8.23;7.63;;;;;;;;;;5093859;28;20203;-62
2023/06/06 13:57:41;;;;;;;8.98;8.27;;;;;;;;;;5093630;28;20227;-62
2023/06/06 14:00:11;;;;;;;8.82;8.15;;;;;;;;;;5093646;28;20229;-62
2023/06/06 14:02:39;;;;;;;8.38;7.78;;;;;;;;;;5093980;28;20227;-62
2023/06/06 14:05:06;;;;;;;8.80;8.20;;;;;;;;;;5094354;28;20204;-62
2023/06/06 14:07:35;;;;;;;9.32;8.63;;;;;;;;;;5093939;28;20206;-62
2023/06/06 14:10:02;;;;;;;9.45;8.68;;;;;;;;;;5093472;28;20283;-62
2023/06/06 14:12:29;;;;;;;9.55;8.82;;;;;;;;;;5092734;28;20672;-62
2023/06/06 14:14:58;;;;;;;9.55;8.85;;;;;;;;;;5093789;28;20265;-62
2023/06/06 14:17:26;;;;;;;8.88;8.27;;;;;;;;;;5093919;28;20219;-63
2023/06/06 14:19:55;;;;;;;9.27;8.57;;;;;;;;;;5093597;28;20204;-63
2023/06/06 14:22:29;;;;;;;9.80;9.00;;;;;;;;;;5093993;28;20204;-62
2023/06/06 14:24:57;;;;;;;8.73;8.13;;;;;;;;;;5093521;28;20212;-62
2023/06/06 14:27:25;;;;;;;10.57;9.77;;;;;;;;;;5093517;28;20206;-62
2023/06/06 14:29:53;;;;;;;9.50;8.75;;;;;;;;;;5093189;28;20207;-62
2023/06/06 14:32:22;;;;;;;9.63;8.93;;;;;;;;;;5093592;28;20269;-62
2023/06/06 14:34:49;;;;;;;9.48;8.77;;;;;;;;;;5093484;28;20203;-62
2023/06/06 14:37:16;;;;;;;9.77;9.07;;;;;;;;;;5093821;28;20227;-62
2023/06/06 14:39:44;;;;;;;10.15;9.38;;;;;;;;;;5094155;28;20613;-62
2023/06/06 14:42:11;;;;;;;10.13;9.32;;;;;;;;;;5092156;28;20203;-62
2023/06/06 14:44:39;;;;;;;10.15;9.35;;;;;;;;;;5093254;28;20199;-62
2023/06/06 14:47:07;;;;;;;9.77;8.98;;;;;;;;;;5092549;28;20239;-62
2023/06/06 14:49:38;;;;;;;9.43;8.73;;;;;;;;;;5092470;28;20258;-62